Time,TemperatureF,DewpointF,PressureIn,WindDirection,WindDirectionDegrees,WindSpeedMPH,WindSpeedGustMPH,Humidity,HourlyPrecipIn,Conditions,Clouds,dailyrainin,SolarRadiationWatts/m^2,SoftwareType,DateUTC
2013-05-03 00:03:00,58.0,54.0,-100.00,NNE,27,4.0,9.0,85,0.00,,,0.11,0.000000,,2013-05-03 04:03:00,
2013-05-03 00:13:00,58.0,54.0,-100.00,NNE,27,4.0,9.0,85,0.00,,,0.11,0.000000,,2013-05-03 04:13:00,
2013-05-03 00:32:00,57.0,53.0,-100.00,NNE,25,6.0,10.0,88,0.00,,,0.11,0.000000,,2013-05-03 04:32:00,
2013-05-03 00:43:00,57.0,53.0,-100.00,NNE,25,6.0,10.0,88,0.00,,,0.11,0.000000,,2013-05-03 04:43:00,
2013-05-03 00:53:00,57.0,53.0,-100.00,NNE,25,6.0,10.0,88,0.00,,,0.11,0.000000,,2013-05-03 04:53:00,
2013-05-03 01:03:00,57.0,53.0,-100.00,NNE,25,6.0,10.0,88,0.00,,,0.11,0.000000,,2013-05-03 05:03:00,
2013-05-03 01:12:00,57.0,53.0,-100.00,NNE,25,6.0,10.0,88,0.00,,,0.11,0.000000,,2013-05-03 05:12:00,
2013-05-03 01:32:00,57.0,54.0,-100.00,NE,34,6.0,12.0,91,0.00,,,0.11,0.000000,,2013-05-03 05:32:00,
2013-05-03 01:42:00,57.0,54.0,-100.00,NE,34,6.0,12.0,91,0.00,,,0.11,0.000000,,2013-05-03 05:42:00,
2013-05-03 01:52:00,57.0,54.0,-100.00,NE,34,6.0,12.0,91,0.00,,,0.11,0.000000,,2013-05-03 05:52:00,
2013-05-03 02:02:00,57.0,54.0,-100.00,NE,34,6.0,12.0,91,0.00,,,0.11,0.000000,,2013-05-03 06:02:00,
2013-05-03 02:12:00,57.0,54.0,-100.00,NE,34,6.0,12.0,91,0.00,,,0.11,0.000000,,2013-05-03 06:12:00,
2013-05-03 02:42:00,57.0,54.0,-100.00,NE,34,7.0,12.0,91,0.00,,,0.10,0.000000,,2013-05-03 06:42:00,
2013-05-03 02:52:00,57.0,54.0,-100.00,NE,34,7.0,12.0,91,0.00,,,0.10,0.000000,,2013-05-03 06:52:00,
2013-05-03 03:02:00,57.0,54.0,-100.00,NE,34,7.0,12.0,91,0.00,,,0.10,0.000000,,2013-05-03 07:02:00,
2013-05-03 03:11:00,57.0,54.0,-100.00,NE,34,7.0,12.0,91,0.00,,,0.10,0.000000,,2013-05-03 07:11:00,
2013-05-03 03:42:00,57.0,55.0,-100.00,NE,42,6.0,12.0,92,0.00,,,0.10,0.000000,,2013-05-03 07:42:00,
2013-05-03 03:52:00,57.0,55.0,-100.00,NE,42,6.0,12.0,92,0.00,,,0.10,0.000000,,2013-05-03 07:52:00,
2013-05-03 04:02:00,57.0,55.0,-100.00,NE,42,6.0,12.0,92,0.00,,,0.10,0.000000,,2013-05-03 08:02:00,
2013-05-03 04:12:00,57.0,55.0,-100.00,NE,42,6.0,12.0,92,0.00,,,0.10,0.000000,,2013-05-03 08:12:00,
2013-05-03 04:42:00,57.0,55.0,-100.00,NE,47,5.0,11.0,92,0.00,,,0.10,0.000000,,2013-05-03 08:42:00,
2013-05-03 04:53:00,57.0,55.0,-100.00,NE,47,5.0,11.0,92,0.00,,,0.10,0.000000,,2013-05-03 08:53:00,
2013-05-03 05:01:00,57.0,55.0,-100.00,NE,47,5.0,11.0,92,0.00,,,0.10,0.000000,,2013-05-03 09:01:00,
2013-05-03 05:12:00,57.0,55.0,-100.00,NE,47,5.0,11.0,92,0.00,,,0.10,0.000000,,2013-05-03 09:12:00,
2013-05-03 05:42:00,57.0,55.0,-100.00,NNE,28,6.0,11.0,93,0.00,,,0.10,0.000000,,2013-05-03 09:42:00,
2013-05-03 05:53:00,57.0,55.0,-100.00,NNE,28,6.0,11.0,93,0.00,,,0.10,0.000000,,2013-05-03 09:53:00,
2013-05-03 06:03:00,57.0,55.0,-100.00,NNE,28,6.0,11.0,93,0.00,,,0.10,0.000000,,2013-05-03 10:03:00,
2013-05-03 06:13:00,57.0,55.0,-100.00,NNE,28,6.0,11.0,93,0.00,,,0.10,0.000000,,2013-05-03 10:13:00,
2013-05-03 06:32:00,57.0,55.0,-100.00,NE,51,5.0,11.0,94,0.00,,,0.10,1.000000,,2013-05-03 10:32:00,
2013-05-03 06:42:00,57.0,55.0,-100.00,NE,51,5.0,11.0,94,0.00,,,0.10,1.000000,,2013-05-03 10:42:00,
2013-05-03 06:52:00,57.0,55.0,-100.00,NE,51,5.0,11.0,94,0.00,,,0.10,1.000000,,2013-05-03 10:52:00,
2013-05-03 07:02:00,57.0,55.0,-100.00,NE,51,5.0,11.0,94,0.00,,,0.10,1.000000,,2013-05-03 11:02:00,
2013-05-03 07:11:00,57.0,55.0,-100.00,NE,51,5.0,11.0,94,0.00,,,0.10,1.000000,,2013-05-03 11:11:00,
2013-05-03 07:32:00,58.0,56.0,-100.00,NNE,32,5.0,9.0,93,0.00,,,0.10,22.000000,,2013-05-03 11:32:00,
2013-05-03 07:42:00,58.0,56.0,-100.00,NNE,32,5.0,9.0,93,0.00,,,0.10,22.000000,,2013-05-03 11:42:00,
2013-05-03 07:52:00,58.0,56.0,-100.00,NNE,32,5.0,9.0,93,0.00,,,0.10,22.000000,,2013-05-03 11:52:00,
2013-05-03 08:02:00,58.0,56.0,-100.00,NNE,32,5.0,9.0,93,0.00,,,0.10,22.000000,,2013-05-03 12:02:00,
2013-05-03 08:12:00,58.0,56.0,-100.00,NNE,32,5.0,9.0,93,0.00,,,0.10,22.000000,,2013-05-03 12:12:00,
2013-05-03 08:42:00,59.0,55.0,-100.00,NNE,31,6.0,12.0,86,0.00,,,0.02,111.000000,,2013-05-03 12:42:00,
2013-05-03 08:52:00,59.0,55.0,-100.00,NNE,31,6.0,12.0,86,0.00,,,0.02,111.000000,,2013-05-03 12:52:00,
2013-05-03 09:01:00,59.0,55.0,-100.00,NNE,31,6.0,12.0,86,0.00,,,0.02,111.000000,,2013-05-03 13:01:00,
2013-05-03 09:11:00,59.0,55.0,-100.00,NNE,31,6.0,12.0,86,0.00,,,0.02,111.000000,,2013-05-03 13:11:00,
2013-05-03 09:42:00,63.0,57.0,-100.00,NE,52,5.0,11.0,80,0.00,,,0.01,314.000000,,2013-05-03 13:42:00,
2013-05-03 09:52:00,63.0,57.0,-100.00,NE,52,5.0,11.0,80,0.00,,,0.01,314.000000,,2013-05-03 13:52:00,
2013-05-03 10:02:00,63.0,57.0,-100.00,NE,52,5.0,11.0,80,0.00,,,0.01,314.000000,,2013-05-03 14:02:00,
2013-05-03 10:11:00,63.0,57.0,-100.00,NE,52,5.0,11.0,80,0.00,,,0.01,314.000000,,2013-05-03 14:11:00,
2013-05-03 10:42:00,66.0,57.0,-100.00,NE,53,6.0,12.0,72,0.00,,,-99.99,358.000000,,2013-05-03 14:42:00,
2013-05-03 10:52:00,66.0,57.0,-100.00,NE,53,6.0,12.0,72,0.00,,,-99.99,358.000000,,2013-05-03 14:52:00,
2013-05-03 11:01:00,66.0,57.0,-100.00,NE,53,6.0,12.0,72,0.00,,,-99.99,358.000000,,2013-05-03 15:01:00,
2013-05-03 11:11:00,66.0,57.0,-100.00,NE,53,6.0,12.0,72,0.00,,,-99.99,358.000000,,2013-05-03 15:11:00,
2013-05-03 11:43:00,67.0,58.0,-100.00,ENE,58,5.0,11.0,72,0.00,,,0.00,209.000000,,2013-05-03 15:43:00,
2013-05-03 11:53:00,67.0,58.0,-100.00,ENE,58,5.0,11.0,72,0.00,,,0.00,209.000000,,2013-05-03 15:53:00,
2013-05-03 12:03:00,67.0,58.0,-100.00,ENE,58,5.0,11.0,72,0.00,,,0.00,209.000000,,2013-05-03 16:03:00,
2013-05-03 12:13:00,67.0,58.0,-100.00,ENE,58,5.0,11.0,72,0.00,,,0.00,209.000000,,2013-05-03 16:13:00,
2013-05-03 12:42:00,70.0,54.0,-100.00,ENE,63,7.0,15.0,56,0.00,,,0.00,492.000000,,2013-05-03 16:42:00,
2013-05-03 12:52:00,70.0,54.0,-100.00,ENE,63,7.0,15.0,56,0.00,,,0.00,492.000000,,2013-05-03 16:52:00,
2013-05-03 13:02:00,70.0,54.0,-100.00,ENE,63,7.0,15.0,56,0.00,,,0.00,492.000000,,2013-05-03 17:02:00,
2013-05-03 13:12:00,70.0,54.0,-100.00,ENE,63,7.0,15.0,56,0.00,,,0.00,492.000000,,2013-05-03 17:12:00,
2013-05-03 13:42:00,71.0,51.0,-100.00,ENE,68,7.0,17.0,50,0.00,,,0.00,779.000000,,2013-05-03 17:42:00,
2013-05-03 13:52:00,71.0,51.0,-100.00,ENE,68,7.0,17.0,50,0.00,,,0.00,779.000000,,2013-05-03 17:52:00,
2013-05-03 14:01:00,71.0,51.0,-100.00,ENE,68,7.0,17.0,50,0.00,,,0.00,779.000000,,2013-05-03 18:01:00,
2013-05-03 14:12:00,71.0,51.0,-100.00,ENE,68,7.0,17.0,50,0.00,,,0.00,779.000000,,2013-05-03 18:12:00,
2013-05-03 14:32:00,70.0,52.0,-100.00,ENE,70,6.0,13.0,52,0.00,,,0.00,583.000000,,2013-05-03 18:32:00,
2013-05-03 14:42:00,70.0,52.0,-100.00,ENE,70,6.0,13.0,52,0.00,,,0.00,583.000000,,2013-05-03 18:42:00,
2013-05-03 14:52:00,70.0,52.0,-100.00,ENE,70,6.0,13.0,52,0.00,,,0.00,583.000000,,2013-05-03 18:52:00,
2013-05-03 15:01:00,70.0,52.0,-100.00,ENE,70,6.0,13.0,52,0.00,,,0.00,583.000000,,2013-05-03 19:01:00,
2013-05-03 15:11:00,70.0,52.0,-100.00,ENE,70,6.0,13.0,52,0.00,,,0.00,583.000000,,2013-05-03 19:11:00,
2013-05-03 15:42:00,67.0,48.0,-100.00,East,81,6.0,15.0,51,0.00,,,0.00,491.000000,,2013-05-03 19:42:00,
2013-05-03 15:52:00,67.0,48.0,-100.00,East,81,6.0,15.0,51,0.00,,,0.00,491.000000,,2013-05-03 19:52:00,
2013-05-03 16:02:00,67.0,48.0,-100.00,East,81,6.0,15.0,51,0.00,,,0.00,491.000000,,2013-05-03 20:02:00,
2013-05-03 16:12:00,67.0,48.0,-100.00,East,81,6.0,15.0,51,0.00,,,0.00,491.000000,,2013-05-03 20:12:00,
2013-05-03 16:32:00,66.0,50.0,-100.00,ENE,58,6.0,14.0,57,0.00,,,0.00,341.000000,,2013-05-03 20:32:00,
2013-05-03 16:42:00,66.0,50.0,-100.00,ENE,58,6.0,14.0,57,0.00,,,0.00,341.000000,,2013-05-03 20:42:00,
2013-05-03 16:52:00,66.0,50.0,-100.00,ENE,58,6.0,14.0,57,0.00,,,0.00,341.000000,,2013-05-03 20:52:00,
2013-05-03 17:02:00,66.0,50.0,-100.00,ENE,58,6.0,14.0,57,0.00,,,0.00,341.000000,,2013-05-03 21:02:00,
2013-05-03 17:11:00,66.0,50.0,-100.00,ENE,58,6.0,14.0,57,0.00,,,0.00,341.000000,,2013-05-03 21:11:00,
2013-05-03 17:33:00,65.0,50.0,-100.00,ENE,63,7.0,15.0,58,0.00,,,0.00,337.000000,,2013-05-03 21:33:00,
2013-05-03 17:43:00,65.0,50.0,-100.00,ENE,63,7.0,15.0,58,0.00,,,0.00,337.000000,,2013-05-03 21:43:00,
2013-05-03 17:53:00,65.0,50.0,-100.00,ENE,63,7.0,15.0,58,0.00,,,0.00,337.000000,,2013-05-03 21:53:00,
2013-05-03 18:03:00,65.0,50.0,-100.00,ENE,63,7.0,15.0,58,0.00,,,0.00,337.000000,,2013-05-03 22:03:00,
2013-05-03 18:13:00,65.0,50.0,-100.00,ENE,63,7.0,15.0,58,0.00,,,0.00,337.000000,,2013-05-03 22:13:00,
2013-05-03 18:42:00,62.0,47.0,-100.00,ENE,76,8.0,16.0,58,0.00,,,0.00,264.000000,,2013-05-03 22:42:00,
2013-05-03 18:52:00,62.0,47.0,-100.00,ENE,76,8.0,16.0,58,0.00,,,0.00,264.000000,,2013-05-03 22:52:00,
2013-05-03 19:02:00,62.0,47.0,-100.00,ENE,76,8.0,16.0,58,0.00,,,0.00,264.000000,,2013-05-03 23:02:00,
2013-05-03 19:11:00,62.0,47.0,-100.00,ENE,76,8.0,16.0,58,0.00,,,0.00,264.000000,,2013-05-03 23:11:00,
2013-05-03 19:52:00,59.0,45.0,-100.00,ENE,72,6.0,12.0,60,0.00,,,0.00,91.000000,,2013-05-03 23:52:00,
2013-05-03 20:01:00,59.0,45.0,-100.00,ENE,72,6.0,12.0,60,0.00,,,0.00,91.000000,,2013-05-04 00:01:00,
2013-05-03 20:11:00,59.0,45.0,-100.00,ENE,72,6.0,12.0,60,0.00,,,0.00,91.000000,,2013-05-04 00:11:00,
2013-05-03 20:42:00,56.0,43.0,-100.00,NE,55,4.0,11.0,61,0.00,,,0.00,11.000000,,2013-05-04 00:42:00,
2013-05-03 20:52:00,56.0,43.0,-100.00,NE,55,4.0,11.0,61,0.00,,,0.00,11.000000,,2013-05-04 00:52:00,
2013-05-03 21:01:00,56.0,43.0,-100.00,NE,55,4.0,11.0,61,0.00,,,0.00,11.000000,,2013-05-04 01:01:00,
2013-05-03 21:11:00,56.0,43.0,-100.00,NE,55,4.0,11.0,61,0.00,,,0.00,11.000000,,2013-05-04 01:11:00,
2013-05-03 21:32:00,56.0,45.0,-100.00,NE,38,5.0,11.0,66,0.00,,,0.00,0.000000,,2013-05-04 01:32:00,
2013-05-03 21:42:00,56.0,45.0,-100.00,NE,38,5.0,11.0,66,0.00,,,0.00,0.000000,,2013-05-04 01:42:00,
2013-05-03 21:52:00,56.0,45.0,-100.00,NE,38,5.0,11.0,66,0.00,,,0.00,0.000000,,2013-05-04 01:52:00,
2013-05-03 22:02:00,56.0,45.0,-100.00,NE,38,5.0,11.0,66,0.00,,,0.00,0.000000,,2013-05-04 02:02:00,
2013-05-03 22:11:00,56.0,45.0,-100.00,NE,38,5.0,11.0,66,0.00,,,0.00,0.000000,,2013-05-04 02:11:00,
2013-05-03 22:32:00,56.0,45.0,-100.00,NE,41,7.0,14.0,67,0.00,,,0.00,0.000000,,2013-05-04 02:32:00,
2013-05-03 22:42:00,56.0,45.0,-100.00,NE,41,7.0,14.0,67,0.00,,,0.00,0.000000,,2013-05-04 02:42:00,
2013-05-03 22:52:00,56.0,45.0,-100.00,NE,41,7.0,14.0,67,0.00,,,0.00,0.000000,,2013-05-04 02:52:00,
2013-05-03 23:02:00,56.0,45.0,-100.00,NE,41,7.0,14.0,67,0.00,,,0.00,0.000000,,2013-05-04 03:02:00,
2013-05-03 23:11:00,56.0,45.0,-100.00,NE,41,7.0,14.0,67,0.00,,,0.00,0.000000,,2013-05-04 03:11:00,
2013-05-03 23:43:00,55.0,47.0,-100.00,NE,39,6.0,15.0,73,0.00,,,0.00,0.000000,,2013-05-04 03:43:00,
2013-05-03 23:53:00,55.0,47.0,-100.00,NE,39,6.0,15.0,73,0.00,,,0.00,0.000000,,2013-05-04 03:53:00,